Time;durP1;ratioP1;P1;durP2;ratioP2;P2;SDS_P1;SDS_P2;PMS_P1;PMS_P2;Temp;Humidity;BMP_temperature;BMP_pressure;BME280_temperature;BME280_humidity;BME280_pressure;Samples;Min_cycle;Max_cycle;Signal;HPM_P1;HPM_P2
2022/09/23 00:00:12;;;;;;;6.33;5.73;;;10.10;99.90;;;;;;5075117;28;20994;-70
2022/09/23 00:02:41;;;;;;;6.87;6.17;;;10.10;99.90;;;;;;5075161;28;20486;-70
2022/09/23 00:05:10;;;;;;;7.33;6.47;;;10.10;99.90;;;;;;5075062;28;20490;-70
2022/09/23 00:07:37;;;;;;;6.80;5.80;;;10.10;99.90;;;;;;5075294;28;20466;-70
2022/09/23 00:10:05;;;;;;;6.47;5.43;;;10.10;99.90;;;;;;5075312;28;20469;-70
2022/09/23 00:12:33;;;;;;;6.70;5.03;;;10.10;99.90;;;;;;5074947;28;20442;-70
2022/09/23 00:14:59;;;;;;;6.80;5.10;;;10.10;99.90;;;;;;5075361;28;20907;-70
2022/09/23 00:17:26;;;;;;;8.13;5.57;;;10.10;99.90;;;;;;5075054;28;20460;-71
2022/09/23 00:19:55;;;;;;;6.10;5.50;;;10.10;99.90;;;;;;5074917;28;20469;-70
2022/09/23 00:22:21;;;;;;;6.40;5.40;;;10.00;99.90;;;;;;5075105;28;20469;-71
2022/09/23 00:24:48;;;;;;;7.80;6.00;;;10.00;99.90;;;;;;5074912;28;20478;-72
2022/09/23 00:27:15;;;;;;;6.93;5.00;;;10.00;99.90;;;;;;5075104;28;20549;-71
2022/09/23 00:29:42;;;;;;;5.83;5.27;;;10.10;99.90;;;;;;5074977;28;20494;-71
2022/09/23 00:32:09;;;;;;;7.33;5.57;;;10.00;99.90;;;;;;5074744;28;20458;-72
2022/09/23 00:34:36;;;;;;;6.67;5.03;;;10.00;99.90;;;;;;5074852;28;20455;-72
2022/09/23 00:37:06;;;;;;;6.70;5.53;;;10.00;99.90;;;;;;5073887;28;20459;-72
2022/09/23 00:39:33;;;;;;;5.10;4.63;;;10.00;99.90;;;;;;5075434;28;20756;-72
2022/09/23 00:41:59;;;;;;;6.77;5.33;;;10.00;99.90;;;;;;5074655;28;20468;-72
2022/09/23 00:44:45;;;;;;;6.73;5.40;;;10.00;99.90;;;;;;5074765;28;20510;-71
2022/09/23 00:47:21;;;;;;;6.63;5.40;;;10.00;99.90;;;;;;5075494;28;20443;-70
2022/09/23 00:49:53;;;;;;;6.17;4.77;;;10.00;99.90;;;;;;5074836;28;20454;-71
2022/09/23 00:52:24;;;;;;;8.60;5.50;;;10.00;99.90;;;;;;5074570;28;20529;-71
2022/09/23 00:54:54;;;;;;;5.60;5.00;;;10.00;99.90;;;;;;5076483;28;20756;-70
2022/09/23 00:57:23;;;;;;;7.53;5.57;;;10.00;99.90;;;;;;5075849;28;20810;-71
2022/09/23 00:59:50;;;;;;;7.87;4.70;;;10.00;99.90;;;;;;5075250;28;20454;-71
2022/09/23 01:02:19;;;;;;;6.00;5.07;;;10.00;99.90;;;;;;5074666;28;20468;-71
2022/09/23 01:04:48;;;;;;;5.93;5.00;;;9.90;99.90;;;;;;5074490;28;20500;-71
2022/09/23 01:07:15;;;;;;;7.70;5.50;;;9.90;99.90;;;;;;5074430;28;20786;-71
2022/09/23 01:09:43;;;;;;;6.00;5.17;;;9.90;99.90;;;;;;5074754;28;20458;-71
2022/09/23 01:12:25;;;;;;;7.03;5.70;;;9.90;99.90;;;;;;5074408;28;20794;-71
2022/09/23 01:15:02;;;;;;;9.30;5.63;;;9.90;99.90;;;;;;5074632;28;20442;-71
2022/09/23 01:17:39;;;;;;;7.60;5.77;;;9.90;99.90;;;;;;5074355;28;20880;-71
2022/09/23 01:20:30;;;;;;;5.90;5.07;;;9.90;99.90;;;;;;5074350;28;20929;-72
2022/09/23 01:23:10;;;;;;;8.00;5.53;;;9.90;99.90;;;;;;5074738;28;20779;-72
2022/09/23 01:25:58;;;;;;;6.40;5.60;;;9.90;99.90;;;;;;5074521;28;20968;-72
2022/09/23 01:28:38;;;;;;;6.57;5.17;;;9.90;99.90;;;;;;5074682;28;20450;-72
2022/09/23 01:31:11;;;;;;;5.47;4.90;;;9.90;99.90;;;;;;5074342;28;20442;-72
2022/09/23 01:33:43;;;;;;;8.27;5.23;;;9.80;99.90;;;;;;5074621;28;20452;-72
2022/09/23 01:36:18;;;;;;;6.63;5.53;;;9.80;99.90;;;;;;5074352;28;20430;-72
2022/09/23 01:38:57;;;;;;;7.17;6.13;;;9.80;99.90;;;;;;5074003;28;20948;-72
2022/09/23 01:41:41;;;;;;;7.53;5.80;;;9.80;99.90;;;;;;5074492;28;20449;-72
2022/09/23 01:44:10;;;;;;;11.80;5.80;;;9.80;99.90;;;;;;5074400;28;20442;-72
2022/09/23 01:46:44;;;;;;;7.33;5.90;;;9.70;99.90;;;;;;5074150;28;20481;-72
2022/09/23 01:49:16;;;;;;;7.10;5.57;;;9.70;99.90;;;;;;5077060;28;20434;-72
2022/09/23 01:51:48;;;;;;;7.33;6.03;;;9.70;99.90;;;;;;5078121;28;20438;-72
2022/09/23 01:54:19;;;;;;;8.00;5.40;;;9.60;99.90;;;;;;5077922;28;20528;-72
2022/09/23 01:56:51;;;;;;;6.90;6.10;;;9.60;99.90;;;;;;5078094;28;20438;-72
2022/09/23 01:59:23;;;;;;;7.90;5.83;;;9.60;99.90;;;;;;5077867;28;20768;-72
2022/09/23 02:01:57;;;;;;;6.33;5.60;;;9.60;99.90;;;;;;5077675;28;20457;-73
2022/09/23 02:04:29;;;;;;;8.90;6.63;;;9.60;99.90;;;;;;5077997;28;20485;-72
2022/09/23 02:06:59;;;;;;;11.80;6.00;;;9.60;99.90;;;;;;5077698;28;20430;-72
2022/09/23 02:09:33;;;;;;;6.53;5.60;;;9.60;99.90;;;;;;5077541;28;20469;-72
2022/09/23 02:12:04;;;;;;;6.77;5.47;;;9.60;99.90;;;;;;5077302;28;20918;-72
2022/09/23 02:14:36;;;;;;;7.47;5.77;;;9.60;99.90;;;;;;5077228;28;20905;-72
2022/09/23 02:17:08;;;;;;;6.30;5.50;;;9.60;99.90;;;;;;5077027;28;20480;-72
2022/09/23 02:19:42;;;;;;;9.07;5.60;;;9.50;99.90;;;;;;5077534;28;20442;-72
2022/09/23 02:22:12;;;;;;;7.80;5.57;;;9.50;99.90;;;;;;5077133;28;20439;-72
2022/09/23 02:24:40;;;;;;;9.03;6.53;;;9.50;99.90;;;;;;5077084;28;20906;-72
2022/09/23 02:27:17;;;;;;;7.80;6.13;;;9.50;99.90;;;;;;5076961;28;20461;-72
2022/09/23 02:29:51;;;;;;;6.93;5.53;;;9.50;99.90;;;;;;5077300;28;20511;-72
2022/09/23 02:32:23;;;;;;;7.73;5.80;;;9.50;99.90;;;;;;5077180;28;20452;-72
2022/09/23 02:34:58;;;;;;;7.43;5.27;;;9.50;99.90;;;;;;5077184;28;20442;-72
2022/09/23 02:37:34;;;;;;;7.23;5.77;;;9.50;99.90;;;;;;5077522;28;20781;-72
2022/09/23 02:40:11;;;;;;;6.43;5.00;;;9.50;99.90;;;;;;5077782;28;20447;-72
2022/09/23 02:42:47;;;;;;;8.80;5.90;;;9.50;99.90;;;;;;5077257;28;20447;-72
2022/09/23 02:45:14;;;;;;;6.77;5.90;;;9.50;99.90;;;;;;5076614;28;20890;-72
2022/09/23 02:47:46;;;;;;;12.93;6.60;;;9.50;99.90;;;;;;5076674;28;20468;-72
2022/09/23 02:50:13;;;;;;;7.60;5.47;;;9.50;99.90;;;;;;5076574;28;20443;-72
2022/09/23 02:52:40;;;;;;;6.80;6.10;;;9.50;99.90;;;;;;5076628;28;20469;-72
2022/09/23 02:55:10;;;;;;;6.33;5.60;;;9.50;99.90;;;;;;5076780;28;20759;-72
2022/09/23 02:57:37;;;;;;;12.13;6.13;;;9.40;99.90;;;;;;5076608;28;20453;-72
2022/09/23 03:00:06;;;;;;;6.57;5.90;;;9.40;99.90;;;;;;5075720;28;20919;-72
2022/09/23 03:02:57;;;;;;;12.23;6.70;;;9.40;99.90;;;;;;5076496;28;20519;-72
2022/09/23 03:05:29;;;;;;;6.27;5.60;;;9.40;99.90;;;;;;5076543;28;20489;-71
2022/09/23 03:08:10;;;;;;;7.73;6.53;;;9.40;99.90;;;;;;5077358;28;20438;-71
2022/09/23 03:10:48;;;;;;;7.00;6.30;;;9.40;99.90;;;;;;5076095;28;20448;-71
2022/09/23 03:13:21;;;;;;;10.57;6.20;;;9.40;99.90;;;;;;5076058;28;20442;-71
2022/09/23 03:15:56;;;;;;;7.20;5.87;;;9.30;99.90;;;;;;5076119;28;20530;-71
2022/09/23 03:18:33;;;;;;;6.07;5.50;;;9.30;99.90;;;;;;5076389;28;20469;-71
2022/09/23 03:21:05;;;;;;;7.07;5.93;;;9.30;99.90;;;;;;5076252;28;20442;-71
2022/09/23 03:23:35;;;;;;;6.67;5.60;;;9.30;99.90;;;;;;5076358;28;20446;-71
2022/09/23 03:26:08;;;;;;;7.50;5.77;;;9.30;99.90;;;;;;5075604;28;20466;-71
2022/09/23 03:28:36;;;;;;;8.03;5.93;;;9.30;99.90;;;;;;5085679;28;20770;-71
2022/09/23 03:31:04;;;;;;;10.20;6.67;;;9.20;99.90;;;;;;5096434;28;20860;-71
2022/09/23 03:33:34;;;;;;;9.97;7.40;;;9.20;99.90;;;;;;5096031;28;20782;-71
2022/09/23 03:38:54;;;;;;;8.93;6.80;;;9.20;99.90;;;;;;5096379;28;20759;-71
2022/09/23 03:41:28;;;;;;;8.83;7.50;;;9.10;99.90;;;;;;5096511;28;20938;-71
2022/09/23 03:43:56;;;;;;;7.97;7.17;;;9.10;99.90;;;;;;5095951;28;20434;-71
2022/09/23 03:46:25;;;;;;;9.27;6.90;;;9.10;99.90;;;;;;5096100;28;20499;-71
2022/09/23 03:48:57;;;;;;;7.17;6.20;;;9.10;99.90;;;;;;5096318;28;20457;-71
2022/09/23 03:51:24;;;;;;;8.40;6.20;;;9.10;99.90;;;;;;5096237;28;20456;-71
2022/09/23 03:53:51;;;;;;;7.37;6.67;;;9.10;99.90;;;;;;5095911;28;20468;-70
2022/09/23 03:56:18;;;;;;;7.80;7.00;;;9.00;99.90;;;;;;5096154;28;20445;-70
2022/09/23 03:58:45;;;;;;;8.30;6.10;;;9.00;99.90;;;;;;5095920;28;20468;-71
2022/09/23 04:01:13;;;;;;;9.43;6.53;;;9.00;99.90;;;;;;5095756;28;20464;-71
2022/09/23 04:03:40;;;;;;;11.10;6.97;;;9.00;99.90;;;;;;5095303;28;20487;-70
2022/09/23 04:06:08;;;;;;;7.50;6.40;;;9.00;99.90;;;;;;5095526;28;20548;-72
2022/09/23 04:08:35;;;;;;;6.83;5.90;;;8.90;99.90;;;;;;5092489;28;20457;-71
2022/09/23 04:11:03;;;;;;;7.83;6.10;;;8.90;99.90;;;;;;5088527;28;20453;-71
2022/09/23 04:13:30;;;;;;;6.90;6.20;;;8.90;99.90;;;;;;5095348;28;20453;-71
2022/09/23 04:15:57;;;;;;;7.73;6.30;;;8.90;99.90;;;;;;5095364;28;20503;-70
2022/09/23 04:18:24;;;;;;;8.97;5.97;;;8.90;99.90;;;;;;5095230;28;20452;-69
2022/09/23 04:20:51;;;;;;;10.20;6.63;;;8.90;99.90;;;;;;5095239;28;20467;-70
2022/09/23 04:23:19;;;;;;;7.80;6.10;;;8.80;99.90;;;;;;5094839;28;20456;-70
2022/09/23 04:25:46;;;;;;;7.63;6.17;;;8.80;99.90;;;;;;5095897;28;20487;-70
2022/09/23 04:28:13;;;;;;;10.10;6.10;;;8.80;99.90;;;;;;5095116;28;20464;-69
2022/09/23 04:30:42;;;;;;;7.67;6.33;;;8.80;99.90;;;;;;5094926;28;20461;-70
2022/09/23 04:33:09;;;;;;;7.83;6.20;;;8.80;99.90;;;;;;5094677;28;20981;-70
2022/09/23 04:35:38;;;;;;;6.87;6.10;;;8.80;99.90;;;;;;5094943;28;20455;-70
2022/09/23 04:38:05;;;;;;;9.70;6.47;;;8.70;99.90;;;;;;5095236;28;20510;-69
2022/09/23 04:40:33;;;;;;;6.97;6.00;;;8.80;99.90;;;;;;5094876;28;20453;-70
2022/09/23 04:43:01;;;;;;;7.77;5.70;;;8.70;99.90;;;;;;5095122;28;20453;-71
2022/09/23 04:45:29;;;;;;;8.60;6.10;;;8.70;99.90;;;;;;5094948;28;20463;-70
2022/09/23 04:47:57;;;;;;;7.30;6.03;;;8.70;99.90;;;;;;5094832;28;20936;-70
2022/09/23 04:50:24;;;;;;;7.67;6.40;;;8.70;99.90;;;;;;5094852;28;20560;-70
2022/09/23 04:52:51;;;;;;;11.20;6.00;;;8.70;99.90;;;;;;5094929;28;20461;-72
2022/09/23 04:55:18;;;;;;;8.37;6.60;;;8.70;99.90;;;;;;5094810;28;20463;-72
2022/09/23 04:57:46;;;;;;;6.97;6.20;;;8.70;99.90;;;;;;5094509;28;20453;-72
2022/09/23 05:00:15;;;;;;;8.83;6.80;;;8.70;99.90;;;;;;5095018;28;20612;-72
2022/09/23 05:02:45;;;;;;;30.57;21.33;;;8.70;99.90;;;;;;5094712;28;20789;-72
2022/09/23 05:05:14;;;;;;;16.10;11.03;;;8.70;99.90;;;;;;5094461;28;20593;-72
2022/09/23 05:07:41;;;;;;;14.63;8.77;;;8.70;99.90;;;;;;5094568;28;20481;-72
2022/09/23 05:10:08;;;;;;;8.30;7.23;;;8.60;99.90;;;;;;5093094;28;20464;-72
2022/09/23 05:12:35;;;;;;;10.53;7.40;;;8.70;99.90;;;;;;5094687;28;20786;-72
2022/09/23 05:15:04;;;;;;;11.00;7.20;;;8.70;99.90;;;;;;5094307;28;20459;-72
2022/09/23 05:17:31;;;;;;;10.00;7.83;;;8.70;99.90;;;;;;5095233;28;20449;-72
2022/09/23 05:19:58;;;;;;;9.40;7.07;;;8.60;99.90;;;;;;5094479;28;20945;-72
2022/09/23 05:22:26;;;;;;;7.67;6.90;;;8.70;99.90;;;;;;5094612;28;20457;-72
2022/09/23 05:24:52;;;;;;;8.87;6.60;;;8.70;99.90;;;;;;5099516;28;20461;-72
2022/09/23 05:27:19;;;;;;;13.13;6.70;;;8.70;99.90;;;;;;5098333;28;20477;-71
2022/09/23 05:29:47;;;;;;;9.40;7.20;;;8.70;99.90;;;;;;5098281;28;20780;-70
2022/09/23 05:32:16;;;;;;;14.70;10.67;;;8.70;99.90;;;;;;5098558;28;20453;-71
2022/09/23 05:34:43;;;;;;;16.33;10.53;;;8.70;99.90;;;;;;5098072;28;20921;-71
2022/09/23 05:37:10;;;;;;;8.30;6.30;;;8.80;99.90;;;;;;5098045;28;20552;-71
2022/09/23 05:39:37;;;;;;;9.10;5.90;;;8.80;99.90;;;;;;5098177;28;20457;-71
2022/09/23 05:42:04;;;;;;;8.17;6.57;;;8.80;99.90;;;;;;5097876;28;20457;-70
2022/09/23 05:44:31;;;;;;;8.53;6.97;;;8.90;99.90;;;;;;5098204;28;20457;-71
2022/09/23 05:46:58;;;;;;;10.47;7.30;;;8.90;99.90;;;;;;5098135;28;20484;-71
2022/09/23 05:49:26;;;;;;;11.80;7.30;;;8.90;99.90;;;;;;5087962;28;20464;-71
2022/09/23 05:51:53;;;;;;;10.07;7.03;;;8.90;99.90;;;;;;5077592;28;20464;-72
2022/09/23 05:54:20;;;;;;;7.90;5.80;;;8.90;99.90;;;;;;5077690;28;20489;-71
2022/09/23 05:56:47;;;;;;;14.93;10.43;;;9.00;99.90;;;;;;5077502;28;20461;-71
2022/09/23 05:59:24;;;;;;;11.50;7.77;;;9.00;99.90;;;;;;5078739;28;20849;-73
2022/09/23 06:01:51;;;;;;;7.80;5.90;;;9.10;99.90;;;;;;5079216;28;20521;-70
2022/09/23 06:04:18;;;;;;;9.17;6.37;;;9.10;99.90;;;;;;5077287;28;20489;-72
2022/09/23 06:06:46;;;;;;;8.13;7.00;;;9.20;99.90;;;;;;5077226;28;20970;-70
2022/09/23 06:09:14;;;;;;;8.17;6.60;;;9.20;99.90;;;;;;5077282;28;20456;-71
2022/09/23 06:11:42;;;;;;;9.17;6.23;;;9.20;99.90;;;;;;5078741;28;20465;-72
2022/09/23 06:14:12;;;;;;;8.00;6.43;;;9.30;99.90;;;;;;5098032;28;20457;-70
2022/09/23 06:16:39;;;;;;;7.13;6.20;;;9.40;99.90;;;;;;5097701;28;20787;-71
2022/09/23 06:19:06;;;;;;;10.53;5.97;;;9.40;99.90;;;;;;5097903;28;20547;-72
2022/09/23 06:21:34;;;;;;;8.13;6.17;;;9.40;99.90;;;;;;5097488;28;20550;-72
2022/09/23 06:24:03;;;;;;;10.30;7.57;;;9.50;99.90;;;;;;5097135;28;20457;-71
2022/09/23 06:26:32;;;;;;;7.07;6.37;;;9.60;99.90;;;;;;5096969;28;20477;-71
2022/09/23 06:28:59;;;;;;;7.70;7.00;;;9.60;99.90;;;;;;5097537;28;20464;-71
2022/09/23 06:31:26;;;;;;;11.40;8.07;;;9.70;99.90;;;;;;5097069;28;20918;-71
2022/09/23 06:33:53;;;;;;;9.87;8.20;;;9.80;99.90;;;;;;5096735;28;20453;-71
2022/09/23 06:36:20;;;;;;;9.60;8.20;;;9.80;99.90;;;;;;5096014;28;20460;-71
2022/09/23 06:38:48;;;;;;;21.50;17.93;;;9.90;99.90;;;;;;5096992;28;20450;-71
2022/09/23 06:41:16;;;;;;;7.60;6.80;;;10.00;99.90;;;;;;5096906;28;20791;-71
2022/09/23 06:43:43;;;;;;;10.10;7.80;;;10.10;99.90;;;;;;5096588;28;20532;-71
2022/09/23 06:46:16;;;;;;;13.90;11.87;;;10.10;99.90;;;;;;5097111;28;20453;-71
2022/09/23 06:48:43;;;;;;;30.00;20.07;;;10.20;99.90;;;;;;5096812;28;20460;-71
2022/09/23 06:51:17;;;;;;;11.00;8.50;;;10.30;99.90;;;;;;5096720;28;20801;-71
2022/09/23 06:53:45;;;;;;;15.00;11.03;;;10.40;99.90;;;;;;5096708;28;20465;-71
2022/09/23 06:56:12;;;;;;;13.50;8.87;;;10.50;99.90;;;;;;5096794;28;20464;-71
2022/09/23 06:58:42;;;;;;;11.63;6.63;;;10.50;99.90;;;;;;5096431;28;20507;-71
2022/09/23 07:01:11;;;;;;;10.80;8.20;;;10.60;99.90;;;;;;5097133;28;20453;-72
2022/09/23 07:03:39;;;;;;;8.10;6.17;;;10.70;99.90;;;;;;5096258;28;20595;-71
2022/09/23 07:06:06;;;;;;;9.03;5.60;;;10.80;99.90;;;;;;5096533;28;20551;-71
2022/09/23 07:08:35;;;;;;;6.93;5.40;;;10.90;99.90;;;;;;5096968;28;20480;-72
2022/09/23 07:11:05;;;;;;;6.00;5.00;;;10.90;99.90;;;;;;5096677;28;20524;-72
2022/09/23 07:13:32;;;;;;;6.50;5.73;;;11.00;99.90;;;;;;5095693;28;20540;-72
2022/09/23 07:16:01;;;;;;;14.93;5.73;;;11.10;99.90;;;;;;5096336;28;20450;-72
2022/09/23 07:18:30;;;;;;;7.43;5.53;;;11.20;99.90;;;;;;5096571;28;20468;-72
2022/09/23 07:20:57;;;;;;;5.63;5.13;;;11.30;99.90;;;;;;5096305;28;20473;-72
2022/09/23 07:23:24;;;;;;;10.97;6.20;;;11.50;99.90;;;;;;5096351;28;20471;-71
2022/09/23 07:25:51;;;;;;;8.27;6.37;;;11.60;99.90;;;;;;5096444;28;20457;-72
2022/09/23 07:28:19;;;;;;;8.00;5.10;;;11.70;99.90;;;;;;5095936;28;20481;-72
2022/09/23 07:30:46;;;;;;;11.37;6.70;;;11.80;99.90;;;;;;5096279;28;20803;-71
2022/09/23 07:33:15;;;;;;;9.07;4.97;;;11.90;99.90;;;;;;5096114;28;20467;-71
2022/09/23 07:35:42;;;;;;;5.67;5.10;;;12.00;99.90;;;;;;5096261;28;20540;-70
2022/09/23 07:38:10;;;;;;;6.27;5.07;;;12.10;99.90;;;;;;5095959;28;20846;-71
2022/09/23 07:40:38;;;;;;;5.73;5.10;;;12.20;99.90;;;;;;5096005;28;20467;-71
2022/09/23 07:43:05;;;;;;;8.80;5.00;;;12.40;99.90;;;;;;5096492;28;20472;-71
2022/09/23 07:45:32;;;;;;;9.90;4.33;;;12.40;99.90;;;;;;5095613;28;20541;-70
2022/09/23 07:48:00;;;;;;;11.37;8.17;;;12.60;99.90;;;;;;5095851;28;20512;-71
2022/09/23 07:50:31;;;;;;;7.73;5.30;;;12.70;99.90;;;;;;5096832;28;20850;-71
2022/09/23 07:52:58;;;;;;;5.30;4.40;;;12.70;99.90;;;;;;5096122;28;20636;-71
2022/09/23 07:55:26;;;;;;;5.80;5.20;;;12.80;99.90;;;;;;5095666;28;20465;-72
2022/09/23 07:57:52;;;;;;;6.23;4.60;;;12.90;99.90;;;;;;5096245;28;20551;-71
2022/09/23 08:00:22;;;;;;;4.80;4.30;;;13.10;99.90;;;;;;5095737;28;20479;-71
2022/09/23 08:02:50;;;;;;;5.03;4.27;;;13.10;99.90;;;;;;5095277;28;20464;-73
2022/09/23 08:05:17;;;;;;;4.70;4.30;;;13.30;99.90;;;;;;5095403;28;20499;-72
2022/09/23 08:07:47;;;;;;;5.50;4.03;;;13.30;99.90;;;;;;5095351;28;20492;-72
2022/09/23 08:10:17;;;;;;;6.63;4.73;;;13.40;99.90;;;;;;5094833;28;20526;-72
2022/09/23 08:12:45;;;;;;;5.90;4.93;;;13.40;99.90;;;;;;5095520;28;20452;-72
2022/09/23 08:15:12;;;;;;;5.20;4.70;;;13.50;99.90;;;;;;5095359;28;20550;-71
2022/09/23 08:17:38;;;;;;;9.03;6.13;;;13.60;99.90;;;;;;5095403;28;20460;-71
2022/09/23 08:20:07;;;;;;;5.60;5.00;;;13.70;99.90;;;;;;5095250;28;20843;-71
2022/09/23 08:22:33;;;;;;;6.50;5.60;;;13.70;99.90;;;;;;5095436;28;20543;-72
2022/09/23 08:25:02;;;;;;;6.33;5.73;;;13.80;99.90;;;;;;5095434;28;20465;-72
2022/09/23 08:27:28;;;;;;;6.53;5.63;;;13.90;99.90;;;;;;5095161;28;20876;-72
2022/09/23 08:29:55;;;;;;;8.93;5.80;;;13.90;99.90;;;;;;5086808;28;20481;-70
2022/09/23 08:32:22;;;;;;;6.27;5.53;;;13.90;99.90;;;;;;5095192;28;20492;-70
2022/09/23 08:34:49;;;;;;;5.97;5.40;;;13.90;99.90;;;;;;5094830;28;20540;-71
2022/09/23 08:37:16;;;;;;;12.77;5.43;;;14.00;99.90;;;;;;5094805;28;20477;-71
2022/09/23 08:39:43;;;;;;;6.67;5.30;;;14.00;99.90;;;;;;5095822;28;20464;-71
2022/09/23 08:42:20;;;;;;;7.00;6.07;;;14.10;99.90;;;;;;5095082;28;20843;-71
2022/09/23 08:44:50;;;;;;;6.13;5.00;;;14.10;99.90;;;;;;5094892;28;20488;-70
2022/09/23 08:47:24;;;;;;;5.83;5.23;;;14.10;99.90;;;;;;5094815;28;20477;-72
2022/09/23 08:49:59;;;;;;;6.60;5.90;;;14.20;99.90;;;;;;5094866;28;20830;-71
2022/09/23 08:52:33;;;;;;;8.40;6.27;;;14.20;99.90;;;;;;5094976;28;20440;-71
2022/09/23 08:55:01;;;;;;;6.87;5.57;;;14.30;99.90;;;;;;5078766;28;20487;-71
2022/09/23 08:57:39;;;;;;;5.83;4.80;;;14.40;99.90;;;;;;5094730;28;20460;-71
2022/09/23 09:00:13;;;;;;;5.10;4.70;;;14.50;99.90;;;;;;5099039;28;20437;-71
2022/09/23 09:02:40;;;;;;;10.20;4.97;;;14.50;99.90;;;;;;5099335;28;20442;-71
2022/09/23 09:05:10;;;;;;;5.10;4.63;;;14.60;99.90;;;;;;5098458;28;20572;-71
2022/09/23 09:07:40;;;;;;;6.13;5.03;;;14.60;99.90;;;;;;5099357;28;20461;-72
2022/09/23 09:10:15;;;;;;;4.90;4.50;;;14.60;99.90;;;;;;5099568;28;20453;-70
2022/09/23 09:12:46;;;;;;;3.80;3.50;;;14.70;99.90;;;;;;5100742;28;20519;-70
2022/09/23 09:15:15;;;;;;;7.90;4.10;;;14.70;99.90;;;;;;5099310;28;20442;-70
2022/09/23 09:17:55;;;;;;;6.63;3.53;;;14.90;99.90;;;;;;5099013;28;20461;-70
2022/09/23 09:20:24;;;;;;;3.50;3.20;;;15.00;99.90;;;;;;5098594;28;20438;-71
2022/09/23 09:22:56;;;;;;;4.30;3.40;;;15.00;99.90;;;;;;5099004;28;20514;-71
2022/09/23 09:25:37;;;;;;;4.27;3.87;;;14.90;99.90;;;;;;5098647;28;20528;-70
2022/09/23 09:28:14;;;;;;;3.70;3.40;;;15.00;99.90;;;;;;5098826;28;20551;-72
2022/09/23 09:30:43;;;;;;;5.80;4.03;;;15.00;99.90;;;;;;5099162;28;20436;-71
2022/09/23 09:33:16;;;;;;;4.63;3.70;;;15.10;99.90;;;;;;5098501;28;20459;-70
2022/09/23 09:36:07;;;;;;;4.07;3.30;;;15.20;99.90;;;;;;5098704;28;20799;-70
2022/09/23 09:38:34;;;;;;;4.77;3.40;;;15.30;99.90;;;;;;5098747;28;20452;-71
2022/09/23 09:41:12;;;;;;;5.77;3.33;;;15.40;99.90;;;;;;5098955;28;20485;-71
2022/09/23 09:43:40;;;;;;;5.07;3.47;;;15.50;99.90;;;;;;5099768;28;20441;-70
2022/09/23 09:46:21;;;;;;;4.10;3.47;;;15.50;99.90;;;;;;5099137;28;20453;-71
2022/09/23 09:48:55;;;;;;;7.03;3.03;;;15.60;99.90;;;;;;5098846;28;20465;-71
2022/09/23 09:51:26;;;;;;;4.77;3.00;;;15.70;99.90;;;;;;5098552;28;20463;-71
2022/09/23 09:53:54;;;;;;;3.47;2.63;;;15.60;99.90;;;;;;5097783;28;20528;-71
2022/09/23 09:56:26;;;;;;;3.30;3.00;;;15.70;99.90;;;;;;5098213;28;20459;-71
2022/09/23 09:58:56;;;;;;;4.43;3.00;;;15.80;99.90;;;;;;5098049;28;20763;-70
2022/09/23 10:01:25;;;;;;;4.00;3.00;;;16.00;99.90;;;;;;5098275;28;20540;-70
2022/09/23 10:03:54;;;;;;;3.83;2.97;;;16.10;99.90;;;;;;5097515;28;20476;-69
2022/09/23 10:06:23;;;;;;;4.97;2.70;;;16.40;99.90;;;;;;5097522;28;20514;-70
2022/09/23 10:09:12;;;;;;;2.93;2.60;;;16.50;99.90;;;;;;5097263;28;20484;-71
2022/09/23 10:11:40;;;;;;;2.57;2.37;;;16.60;99.90;;;;;;5097691;28;20450;-71
2022/09/23 10:14:16;;;;;;;2.20;1.77;;;16.70;99.90;;;;;;5097462;28;20453;-71
2022/09/23 10:16:44;;;;;;;2.53;1.70;;;16.80;99.90;;;;;;5097814;28;20529;-71
2022/09/23 10:19:23;;;;;;;1.70;1.60;;;16.80;99.90;;;;;;5098599;28;20831;-71
2022/09/23 10:21:55;;;;;;;2.47;2.10;;;16.90;99.90;;;;;;5097549;28;20437;-69
2022/09/23 10:24:25;;;;;;;3.57;2.87;;;17.10;99.90;;;;;;5098047;28;20438;-70
2022/09/23 10:26:56;;;;;;;2.40;2.00;;;17.30;99.90;;;;;;5097625;28;20497;-70
2022/09/23 10:29:38;;;;;;;2.77;2.33;;;17.40;99.90;;;;;;5097156;28;20497;-70
2022/09/23 10:32:25;;;;;;;2.13;1.93;;;17.60;99.90;;;;;;5097431;28;20456;-70
2022/09/23 10:34:55;;;;;;;2.50;2.30;;;17.70;99.90;;;;;;5096885;28;20438;-70
2022/09/23 10:37:32;;;;;;;2.17;1.97;;;17.70;99.90;;;;;;5097175;28;20560;-70
2022/09/23 10:48:44;;;;;;;2.13;1.73;;;17.10;99.90;;;;;;5096866;28;20460;-72
2022/09/23 10:51:17;;;;;;;1.93;1.50;;;17.10;99.90;;;;;;5096792;28;20503;-70
2022/09/23 10:53:50;;;;;;;2.50;1.90;;;17.20;99.90;;;;;;5096968;28;20772;-71
2022/09/23 10:56:27;;;;;;;3.07;1.67;;;17.30;99.90;;;;;;5096903;28;20463;-71
2022/09/23 10:59:09;;;;;;;1.80;1.57;;;17.40;99.90;;;;;;5097547;28;20448;-72
2022/09/23 11:01:44;;;;;;;2.60;1.80;;;17.40;99.90;;;;;;5097400;28;20438;-71
2022/09/23 11:04:30;;;;;;;1.53;1.43;;;17.40;99.90;;;;;;5096115;28;20825;-71
2022/09/23 11:07:13;;;;;;;2.17;1.47;;;17.60;99.90;;;;;;5097414;28;20437;-71
2022/09/23 11:09:54;;;;;;;1.97;1.67;;;17.70;99.90;;;;;;5096087;28;20429;-71
2022/09/23 11:12:32;;;;;;;1.70;1.50;;;18.00;99.90;;;;;;5096582;28;20472;-71
2022/09/23 11:15:15;;;;;;;2.57;1.70;;;18.10;99.90;;;;;;5096525;28;20441;-70
2022/09/23 11:18:17;;;;;;;4.60;2.03;;;18.20;99.90;;;;;;5096155;28;20434;-70
2022/09/23 11:20:54;;;;;;;2.00;1.80;;;18.20;99.90;;;;;;5095696;28;20490;-70
2022/09/23 11:23:49;;;;;;;2.90;1.70;;;18.20;99.90;;;;;;5096003;28;20449;-70
2022/09/23 11:26:30;;;;;;;2.20;1.90;;;18.30;99.90;;;;;;5096280;28;20438;-70
2022/09/23 11:29:24;;;;;;;2.90;2.70;;;18.50;99.90;;;;;;5095849;28;20786;-71
2022/09/23 11:31:59;;;;;;;2.17;1.77;;;18.90;99.90;;;;;;5045577;28;20449;-70
2022/09/23 11:34:51;;;;;;;3.10;2.80;;;19.00;99.90;;;;;;5096285;28;20440;-70
2022/09/23 11:37:21;;;;;;;2.83;1.60;;;19.20;99.90;;;;;;5096460;28;20488;-71
2022/09/23 11:39:56;;;;;;;1.80;1.67;;;19.40;99.60;;;;;;5096296;28;20463;-71
2022/09/23 11:42:26;;;;;;;2.10;1.80;;;19.50;98.80;;;;;;5095809;28;20437;-71
2022/09/23 11:44:58;;;;;;;1.70;1.50;;;19.70;97.30;;;;;;5096132;28;20549;-71
2022/09/23 11:47:29;;;;;;;2.27;1.93;;;19.80;97.10;;;;;;5095449;28;20452;-71
2022/09/23 11:50:02;;;;;;;5.40;2.40;;;20.20;98.30;;;;;;5095689;28;20468;-71
2022/09/23 11:52:33;;;;;;;2.80;2.60;;;20.60;96.40;;;;;;5096049;28;20473;-71
2022/09/23 11:55:06;;;;;;;2.90;2.70;;;21.20;96.50;;;;;;5100752;28;20503;-71
2022/09/23 11:57:38;;;;;;;2.27;1.50;;;22.00;96.40;;;;;;5096172;28;20442;-71
2022/09/23 12:00:14;;;;;;;2.23;2.03;;;22.80;91.70;;;;;;5095849;28;20537;-72
2022/09/23 12:02:54;;;;;;;2.47;1.80;;;23.40;89.90;;;;;;5095708;28;20479;-71
2022/09/23 12:05:25;;;;;;;2.30;1.70;;;24.20;82.70;;;;;;5095712;28;20437;-70
2022/09/23 12:08:00;;;;;;;1.57;1.40;;;25.10;77.30;;;;;;5095409;28;20461;-71
2022/09/23 12:10:44;;;;;;;1.73;1.63;;;25.30;64.30;;;;;;5095445;28;20441;-72
2022/09/23 12:13:17;;;;;;;3.17;2.40;;;25.20;61.50;;;;;;5095223;28;20484;-71
2022/09/23 12:15:59;;;;;;;4.40;4.00;;;25.60;58.10;;;;;;5095729;28;20442;-71
2022/09/23 12:18:41;;;;;;;2.30;1.70;;;26.20;57.30;;;;;;5095131;28;20438;-71
2022/09/23 12:21:23;;;;;;;2.07;1.87;;;26.70;53.50;;;;;;5095273;28;20441;-71
2022/09/23 12:24:04;;;;;;;3.57;2.90;;;26.70;50.90;;;;;;5095079;28;20438;-71
2022/09/23 12:26:32;;;;;;;3.90;3.10;;;27.30;50.80;;;;;;5095036;28;20441;-71
2022/09/23 12:29:02;;;;;;;2.03;1.83;;;27.50;47.50;;;;;;5095472;28;20516;-71
2022/09/23 12:31:30;;;;;;;2.90;1.80;;;27.40;45.60;;;;;;5095228;28;20461;-71
2022/09/23 12:34:00;;;;;;;4.47;2.83;;;27.10;45.10;;;;;;5094853;28;20453;-71
2022/09/23 12:36:33;;;;;;;2.93;2.50;;;26.70;45.30;;;;;;5095139;28;20458;-71
2022/09/23 12:39:05;;;;;;;2.33;1.80;;;26.60;45.30;;;;;;5094753;28;20437;-71
2022/09/23 12:41:36;;;;;;;4.77;1.60;;;26.80;45.40;;;;;;5094602;28;20473;-71
2022/09/23 12:44:25;;;;;;;2.80;2.30;;;26.30;44.30;;;;;;5094836;28;20442;-71
2022/09/23 12:47:32;;;;;;;2.47;2.10;;;26.50;46.00;;;;;;5077622;28;20441;-71
2022/09/23 12:50:00;;;;;;;2.77;2.57;;;27.40;45.40;;;;;;5094647;28;20477;-71
2022/09/23 12:52:30;;;;;;;2.30;1.83;;;28.10;43.40;;;;;;5094314;28;20468;-71
2022/09/23 12:54:58;;;;;;;1.80;1.53;;;27.80;41.70;;;;;;5079040;28;20879;-71
2022/09/23 12:57:41;;;;;;;2.33;2.13;;;27.80;41.10;;;;;;5094826;28;20464;-71
2022/09/23 13:00:22;;;;;;;3.00;2.00;;;27.20;41.80;;;;;;5094149;28;20449;-71
2022/09/23 13:08:32;;;;;;;1.93;1.73;;;26.30;42.70;;;;;;5094942;28;20460;-73
2022/09/23 13:11:08;;;;;;;1.87;1.60;;;26.70;43.00;;;;;;5094518;28;20463;-71
2022/09/23 13:13:37;;;;;;;3.23;2.93;;;27.30;42.20;;;;;;5095071;28;20572;-71
2022/09/23 13:16:13;;;;;;;2.33;2.13;;;28.00;41.50;;;;;;5094822;28;20449;-71
2022/09/23 13:18:58;;;;;;;3.03;2.73;;;28.70;41.10;;;;;;5094621;28;20540;-71
2022/09/23 13:22:01;;;;;;;1.70;1.57;;;29.40;40.70;;;;;;5094591;28;20520;-71
2022/09/23 13:24:39;;;;;;;2.00;1.80;;;29.40;37.00;;;;;;5094827;28;20449;-71
2022/09/23 13:27:14;;;;;;;3.03;1.87;;;29.10;36.20;;;;;;5095220;28;20438;-71
2022/09/23 13:29:46;;;;;;;1.87;1.37;;;28.70;36.20;;;;;;5094590;28;20461;-71